Time;durP1;ratioP1;P1;durP2;ratioP2;P2;SDS_P1;SDS_P2;PMS_P1;PMS_P2;Temp;Humidity;BMP_temperature;BMP_pressure;BME280_temperature;BME280_humidity;BME280_pressure;Samples;Min_cycle;Max_cycle;Signal;HPM_P1;HPM_P2
2022/03/04 00:00:20;;;;;;;83.80;48.60;;;1.10;97.40;;;;;;4976708;28;20027;-67
2022/03/04 00:02:49;;;;;;;86.32;47.83;;;1.10;97.60;;;;;;4975428;28;20122;-67
2022/03/04 00:05:21;;;;;;;88.97;50.20;;;1.00;97.40;;;;;;4991229;28;20030;-67
2022/03/04 00:07:53;;;;;;;73.95;45.83;;;1.10;98.00;;;;;;4973985;28;20027;-65
2022/03/04 00:10:20;;;;;;;73.05;44.88;;;1.10;98.10;;;;;;4974306;28;20515;-64
2022/03/04 00:12:46;;;;;;;79.00;43.50;;;1.00;98.30;;;;;;4958586;28;20362;-66
2022/03/04 00:15:12;;;;;;;80.82;43.55;;;1.10;99.00;;;;;;4958464;28;20035;-66
2022/03/04 00:17:38;;;;;;;74.20;45.72;;;1.00;98.90;;;;;;4958125;28;20031;-65
2022/03/04 00:20:05;;;;;;;72.57;43.35;;;1.00;99.10;;;;;;4967777;28;20393;-66
2022/03/04 00:22:34;;;;;;;72.30;42.40;;;1.00;99.40;;;;;;4990855;28;20019;-66
2022/03/04 00:25:00;;;;;;;83.28;45.17;;;1.00;99.40;;;;;;4974698;28;20035;-67
2022/03/04 00:27:29;;;;;;;80.22;47.72;;;1.00;98.50;;;;;;4991387;28;20035;-66
2022/03/04 00:29:55;;;;;;;89.07;51.55;;;0.80;99.90;;;;;;4975975;28;20495;-66
2022/03/04 00:32:39;;;;;;;85.68;52.05;;;0.70;99.90;;;;;;4975530;28;20105;-67
2022/03/04 00:35:10;;;;;;;79.85;48.80;;;0.70;99.90;;;;;;4972873;28;20054;-66
2022/03/04 00:37:48;;;;;;;82.45;48.95;;;0.70;99.90;;;;;;4958243;28;20418;-65
2022/03/04 00:40:15;;;;;;;82.10;49.05;;;0.80;99.90;;;;;;4974677;28;20043;-66
2022/03/04 00:42:40;;;;;;;80.38;49.47;;;0.70;99.90;;;;;;4975648;28;20023;-66
2022/03/04 00:45:08;;;;;;;81.40;46.78;;;0.70;99.90;;;;;;4977887;28;20050;-66
2022/03/04 00:47:34;;;;;;;68.18;42.10;;;0.70;99.90;;;;;;4974291;28;20031;-66
2022/03/04 00:50:04;;;;;;;68.80;39.60;;;0.70;99.90;;;;;;4974300;28;20440;-68
2022/03/04 00:52:30;;;;;;;63.13;38.15;;;0.60;99.90;;;;;;4975398;28;20038;-68
2022/03/04 00:55:05;;;;;;;66.45;38.08;;;0.60;99.90;;;;;;4975565;28;20023;-66
2022/03/04 00:57:39;;;;;;;91.95;53.78;;;0.50;99.90;;;;;;4958386;28;20033;-66
2022/03/04 01:00:06;;;;;;;84.35;48.45;;;0.50;99.90;;;;;;4958082;28;20062;-66
2022/03/04 01:02:32;;;;;;;83.50;48.97;;;0.40;99.90;;;;;;4975026;28;20548;-68
2022/03/04 01:04:58;;;;;;;74.47;46.58;;;0.40;99.90;;;;;;4973324;28;20515;-66
2022/03/04 01:07:24;;;;;;;80.80;46.60;;;0.40;99.90;;;;;;4975288;28;20030;-68
2022/03/04 01:09:50;;;;;;;68.97;42.65;;;0.40;99.90;;;;;;4973624;28;20031;-65
2022/03/04 01:12:23;;;;;;;77.43;45.55;;;0.30;99.90;;;;;;4972837;28;20057;-65
2022/03/04 01:14:51;;;;;;;73.30;44.30;;;0.40;99.90;;;;;;4969569;28;20493;-66
2022/03/04 01:17:17;;;;;;;76.57;46.90;;;0.40;99.90;;;;;;4957436;28;20114;-66
2022/03/04 01:19:43;;;;;;;87.72;49.72;;;0.40;99.90;;;;;;4958481;28;20030;-65
2022/03/04 01:22:09;;;;;;;89.28;50.53;;;0.40;99.90;;;;;;4973736;28;20022;-67
2022/03/04 01:24:35;;;;;;;88.18;50.15;;;0.40;99.90;;;;;;4974237;28;20358;-66
2022/03/04 01:27:02;;;;;;;91.07;48.92;;;0.40;99.90;;;;;;4973815;28;20033;-66
2022/03/04 01:29:28;;;;;;;110.53;62.22;;;0.40;99.90;;;;;;4974015;28;20041;-65
2022/03/04 01:32:05;;;;;;;115.90;65.57;;;0.30;99.90;;;;;;4957703;28;20066;-67
2022/03/04 01:34:37;;;;;;;97.85;56.80;;;0.40;99.90;;;;;;4957362;28;20042;-65
2022/03/04 01:37:09;;;;;;;69.30;41.67;;;0.30;99.90;;;;;;4973826;28;20102;-65
2022/03/04 01:39:45;;;;;;;60.38;37.15;;;0.30;99.90;;;;;;4973944;28;20136;-65
2022/03/04 01:42:14;;;;;;;62.50;35.83;;;0.30;99.90;;;;;;4974907;28;20470;-66
2022/03/04 01:44:50;;;;;;;81.05;50.17;;;0.20;99.90;;;;;;4958801;28;20129;-66
2022/03/04 01:47:16;;;;;;;65.75;38.78;;;0.20;99.90;;;;;;4957824;28;20472;-67
2022/03/04 01:49:45;;;;;;;75.82;47.83;;;0.10;99.90;;;;;;4973730;28;20030;-66
2022/03/04 01:52:17;;;;;;;77.90;48.47;;;0.10;99.90;;;;;;4972436;28;20073;-66
2022/03/04 01:54:43;;;;;;;70.30;44.63;;;0.10;99.90;;;;;;4955767;28;20027;-65
2022/03/04 01:57:13;;;;;;;74.50;44.83;;;0.10;99.90;;;;;;4958640;28;20054;-66
2022/03/04 01:59:44;;;;;;;76.57;44.63;;;0.10;99.90;;;;;;4956538;28;20035;-67
2022/03/04 02:02:10;;;;;;;80.65;47.05;;;0.10;99.90;;;;;;4973033;28;20125;-65
2022/03/04 02:04:37;;;;;;;75.03;44.63;;;0.10;99.90;;;;;;4973612;28;20046;-66
2022/03/04 02:07:03;;;;;;;76.57;47.45;;;0.20;99.90;;;;;;4972461;28;20509;-66
2022/03/04 02:09:29;;;;;;;77.55;47.47;;;0.20;99.90;;;;;;4972875;28;20097;-65
2022/03/04 02:11:56;;;;;;;83.50;50.55;;;0.30;99.90;;;;;;4973589;28;20042;-66
2022/03/04 02:14:22;;;;;;;81.15;50.88;;;0.20;99.90;;;;;;4974397;28;20031;-66
2022/03/04 02:16:53;;;;;;;78.63;53.10;;;0.20;99.90;;;;;;4972273;28;20081;-66
2022/03/04 02:19:21;;;;;;;79.68;49.55;;;0.10;99.90;;;;;;4954716;28;20103;-65
2022/03/04 02:21:55;;;;;;;84.53;47.38;;;0.10;99.90;;;;;;4976025;28;20033;-66
2022/03/04 02:24:24;;;;;;;72.28;43.90;;;0.00;99.90;;;;;;4987357;28;20023;-66
2022/03/04 02:26:51;;;;;;;63.85;40.10;;;0.00;99.90;;;;;;4958942;28;20027;-66
2022/03/04 02:29:18;;;;;;;63.42;38.42;;;0.00;99.90;;;;;;4972508;28;20018;-66
2022/03/04 02:31:45;;;;;;;60.00;38.35;;;0.00;99.90;;;;;;4957156;28;20552;-66
2022/03/04 02:34:11;;;;;;;61.50;39.67;;;0.00;99.90;;;;;;4989086;28;20023;-67
2022/03/04 02:36:38;;;;;;;78.68;43.13;;;0.00;99.90;;;;;;4973960;28;20030;-66
2022/03/04 02:39:06;;;;;;;94.28;53.53;;;0.00;99.90;;;;;;4955590;28;20385;-65
2022/03/04 02:41:35;;;;;;;88.13;51.88;;;0.00;99.90;;;;;;4974101;28;20027;-66
2022/03/04 02:44:08;;;;;;;84.93;50.92;;;-0.10;99.90;;;;;;4972390;28;20034;-66
2022/03/04 02:46:35;;;;;;;76.72;43.30;;;0.00;99.90;;;;;;4956220;28;20051;-66
2022/03/04 02:49:02;;;;;;;75.60;44.83;;;-0.10;99.90;;;;;;4972937;28;20035;-66
2022/03/04 02:51:28;;;;;;;75.53;43.47;;;-0.10;99.90;;;;;;4973644;28;20065;-66
2022/03/04 02:53:54;;;;;;;70.07;42.55;;;0.00;99.90;;;;;;4955622;28;20081;-66
2022/03/04 02:56:24;;;;;;;75.57;42.22;;;0.00;99.90;;;;;;4973899;28;20147;-66
2022/03/04 02:58:51;;;;;;;73.70;41.53;;;0.00;99.90;;;;;;4972422;28;20058;-66
2022/03/04 03:01:17;;;;;;;75.80;41.72;;;0.00;99.90;;;;;;4972538;28;20031;-66
2022/03/04 03:03:44;;;;;;;78.53;44.38;;;0.00;99.90;;;;;;4973788;28;20031;-65
2022/03/04 03:06:10;;;;;;;82.32;44.10;;;0.00;99.90;;;;;;4972678;28;20481;-66
2022/03/04 03:08:37;;;;;;;79.05;46.70;;;0.00;99.90;;;;;;4973560;28;20154;-67
2022/03/04 03:11:03;;;;;;;85.22;50.30;;;0.10;99.90;;;;;;4973157;28;20432;-66
2022/03/04 03:13:29;;;;;;;92.28;47.47;;;0.20;99.90;;;;;;4984150;28;20023;-66
2022/03/04 03:15:58;;;;;;;81.75;46.53;;;0.20;99.90;;;;;;4973501;28;20022;-65
2022/03/04 03:18:26;;;;;;;78.35;46.58;;;0.30;99.90;;;;;;4972300;28;20057;-67
2022/03/04 03:20:53;;;;;;;69.95;40.30;;;0.30;99.90;;;;;;4973367;28;20035;-66
2022/03/04 03:23:19;;;;;;;68.70;41.30;;;0.30;99.90;;;;;;4972060;28;20132;-65
2022/03/04 03:25:45;;;;;;;72.18;40.63;;;0.20;99.90;;;;;;4972826;28;20452;-67
2022/03/04 03:28:14;;;;;;;67.35;37.70;;;0.30;99.90;;;;;;4973912;28;20026;-66
2022/03/04 03:30:40;;;;;;;60.42;36.70;;;0.20;99.90;;;;;;4973456;28;20038;-67
2022/03/04 03:33:06;;;;;;;53.58;31.77;;;0.20;99.90;;;;;;4991450;28;20027;-66
2022/03/04 03:35:35;;;;;;;70.45;42.90;;;0.10;99.90;;;;;;4977547;28;20118;-66
2022/03/04 03:38:03;;;;;;;64.32;38.30;;;0.00;99.90;;;;;;4959557;28;20034;-66
2022/03/04 03:40:29;;;;;;;81.38;44.10;;;0.00;99.90;;;;;;4976369;28;20126;-66
2022/03/04 03:42:55;;;;;;;68.90;40.58;;;0.00;99.90;;;;;;4976069;28;20030;-69
2022/03/04 03:45:22;;;;;;;61.17;37.67;;;0.00;99.90;;;;;;4976847;28;20393;-67
2022/03/04 03:47:48;;;;;;;53.20;30.92;;;0.00;99.90;;;;;;4975434;28;20062;-66
2022/03/04 03:50:14;;;;;;;47.63;30.60;;;0.00;99.90;;;;;;4968729;28;20034;-66
2022/03/04 03:52:40;;;;;;;52.85;30.30;;;-0.10;99.90;;;;;;4975183;28;20089;-66
2022/03/04 03:55:07;;;;;;;49.63;29.75;;;-0.10;99.90;;;;;;4976838;28;20424;-66
2022/03/04 03:57:33;;;;;;;61.55;37.80;;;-0.10;99.90;;;;;;4959651;28;20117;-66
2022/03/04 03:59:59;;;;;;;73.88;42.60;;;-0.20;99.90;;;;;;4976801;28;20134;-67
2022/03/04 04:02:27;;;;;;;66.75;41.53;;;-0.20;99.90;;;;;;4975486;28;20471;-66
2022/03/04 04:04:58;;;;;;;63.28;40.85;;;-0.20;99.90;;;;;;4976816;28;20102;-66
2022/03/04 04:07:25;;;;;;;66.68;38.63;;;-0.20;99.90;;;;;;4959161;28;20113;-66
2022/03/04 04:09:51;;;;;;;68.15;39.08;;;-0.20;99.90;;;;;;4958436;28;20447;-68
2022/03/04 04:12:17;;;;;;;61.28;35.33;;;-0.20;99.90;;;;;;4974895;28;20023;-67
2022/03/04 04:14:43;;;;;;;58.05;33.08;;;-0.30;99.90;;;;;;4974708;28;20023;-67
2022/03/04 04:17:09;;;;;;;57.80;36.47;;;-0.30;99.90;;;;;;4978528;28;20492;-67
2022/03/04 04:19:35;;;;;;;59.10;33.40;;;-0.30;99.90;;;;;;4985868;28;20023;-66
2022/03/04 04:22:00;;;;;;;68.80;38.47;;;-0.30;99.90;;;;;;4976307;28;20405;-66
2022/03/04 04:24:26;;;;;;;58.03;36.10;;;-0.40;99.90;;;;;;4976545;28;20109;-65
2022/03/04 04:26:52;;;;;;;58.00;35.05;;;-0.40;99.90;;;;;;4975659;28;20034;-67
2022/03/04 04:29:19;;;;;;;64.60;36.20;;;-0.40;99.90;;;;;;4975697;28;20035;-66
2022/03/04 04:31:45;;;;;;;59.97;34.72;;;-0.40;99.90;;;;;;4958507;28;20043;-68
2022/03/04 04:34:11;;;;;;;59.28;35.20;;;-0.40;99.90;;;;;;4976166;28;20101;-67
2022/03/04 04:36:37;;;;;;;59.58;36.10;;;-0.40;99.90;;;;;;4975913;28;20485;-67
2022/03/04 04:39:04;;;;;;;55.72;34.75;;;-0.40;99.90;;;;;;4976010;28;20031;-66
2022/03/04 04:41:30;;;;;;;57.63;35.17;;;-0.40;99.90;;;;;;4975504;28;20495;-67
2022/03/04 04:43:56;;;;;;;53.03;32.45;;;-0.30;99.90;;;;;;4975304;28;20120;-66
2022/03/04 04:46:23;;;;;;;51.97;30.73;;;-0.30;99.90;;;;;;4989944;28;20077;-66
2022/03/04 04:48:49;;;;;;;54.47;32.72;;;-0.50;99.90;;;;;;4957743;28;20046;-66
2022/03/04 04:51:15;;;;;;;47.72;29.55;;;-0.50;99.90;;;;;;4973955;28;20433;-67
2022/03/04 04:53:41;;;;;;;51.53;29.95;;;-0.60;99.90;;;;;;4958273;28;20116;-67
2022/03/04 04:56:10;;;;;;;47.95;27.13;;;-0.60;99.90;;;;;;4975638;28;20074;-68
2022/03/04 04:58:35;;;;;;;41.30;25.20;;;-0.60;99.90;;;;;;4973354;28;20117;-70
2022/03/04 05:01:02;;;;;;;49.70;30.27;;;-0.60;99.90;;;;;;4975486;28;20170;-68
2022/03/04 05:03:28;;;;;;;62.67;37.13;;;-0.50;99.90;;;;;;4975469;28;20030;-69
2022/03/04 05:05:55;;;;;;;72.03;40.30;;;-0.50;99.90;;;;;;4975250;28;20038;-69
2022/03/04 05:08:27;;;;;;;59.33;35.80;;;-0.50;99.90;;;;;;4975626;28;20021;-68
2022/03/04 05:10:54;;;;;;;57.13;32.25;;;-0.50;99.90;;;;;;4957404;28;20603;-68
2022/03/04 05:13:20;;;;;;;54.88;30.73;;;-0.50;99.90;;;;;;4973409;28;20488;-66
2022/03/04 05:15:46;;;;;;;54.30;31.88;;;-0.50;99.90;;;;;;4969847;28;20027;-68
2022/03/04 05:18:12;;;;;;;55.97;32.38;;;-0.40;99.90;;;;;;4974862;28;20125;-69
2022/03/04 05:20:38;;;;;;;52.92;32.15;;;-0.40;99.90;;;;;;4974005;28;20034;-68
2022/03/04 05:23:05;;;;;;;45.67;29.05;;;-0.40;99.90;;;;;;4974613;28;20023;-68
2022/03/04 05:25:33;;;;;;;42.72;27.33;;;-0.40;99.90;;;;;;4976868;28;20031;-68
2022/03/04 05:27:59;;;;;;;45.00;28.95;;;-0.40;99.90;;;;;;4973640;28;20023;-68
2022/03/04 05:30:26;;;;;;;41.80;26.33;;;-0.40;99.90;;;;;;4973472;28;20043;-69
2022/03/04 05:32:52;;;;;;;45.33;27.60;;;-0.30;99.90;;;;;;4989042;28;20023;-66
2022/03/04 05:35:20;;;;;;;50.53;32.05;;;-0.30;99.90;;;;;;4975354;28;20034;-69
2022/03/04 05:37:47;;;;;;;48.17;28.17;;;-0.20;99.90;;;;;;4960678;28;20456;-69
2022/03/04 05:40:13;;;;;;;46.22;26.55;;;-0.20;99.90;;;;;;4974132;28;20027;-69
2022/03/04 05:42:39;;;;;;;47.63;26.25;;;-0.10;99.90;;;;;;4974848;28;20118;-69
2022/03/04 05:45:08;;;;;;;44.67;26.17;;;0.30;99.90;;;;;;4957393;28;20050;-68
2022/03/04 05:47:34;;;;;;;40.42;24.70;;;0.50;99.90;;;;;;4972766;28;20073;-70
2022/03/04 05:50:00;;;;;;;42.20;23.48;;;1.00;99.90;;;;;;4974813;28;20488;-69
2022/03/04 05:52:26;;;;;;;36.10;22.35;;;1.00;99.90;;;;;;4972060;28;20034;-70
2022/03/04 05:54:52;;;;;;;40.50;24.88;;;1.10;99.90;;;;;;4971487;28;20527;-69
2022/03/04 05:57:18;;;;;;;57.55;35.67;;;1.10;99.90;;;;;;4974815;28;20042;-69
2022/03/04 05:59:44;;;;;;;43.20;27.20;;;1.70;99.50;;;;;;4973364;28;20023;-67
2022/03/04 06:02:10;;;;;;;42.95;24.58;;;1.90;98.10;;;;;;4974481;28;20058;-69
2022/03/04 06:04:37;;;;;;;42.67;25.02;;;1.80;97.70;;;;;;4974368;28;20015;-68
2022/03/04 06:07:06;;;;;;;34.80;21.95;;;2.30;96.20;;;;;;4953328;29;20061;-69
2022/03/04 06:09:32;;;;;;;39.38;24.02;;;2.50;95.30;;;;;;4962278;28;20038;-69
2022/03/04 06:11:58;;;;;;;36.45;23.48;;;2.50;94.20;;;;;;4955026;28;20039;-67
2022/03/04 06:14:24;;;;;;;34.42;22.98;;;2.80;93.40;;;;;;4954703;28;20031;-67
2022/03/04 06:16:53;;;;;;;38.20;24.10;;;2.70;93.20;;;;;;4972247;28;20031;-67
2022/03/04 06:19:20;;;;;;;36.72;23.05;;;3.00;93.00;;;;;;4955696;28;20027;-67
2022/03/04 06:21:46;;;;;;;41.53;23.20;;;3.10;92.60;;;;;;4970941;28;20058;-67
2022/03/04 06:24:12;;;;;;;34.28;21.50;;;3.10;92.60;;;;;;4970527;28;20035;-69
2022/03/04 06:26:39;;;;;;;38.47;23.85;;;2.50;93.00;;;;;;4954909;28;20031;-67
2022/03/04 06:29:05;;;;;;;38.20;24.20;;;2.40;94.70;;;;;;4971071;28;20030;-69
2022/03/04 06:31:31;;;;;;;37.95;24.15;;;2.20;95.50;;;;;;4953328;28;20039;-67
2022/03/04 06:33:57;;;;;;;40.03;24.48;;;2.20;95.90;;;;;;4953567;29;20028;-70
2022/03/04 06:36:23;;;;;;;42.58;25.40;;;2.10;96.90;;;;;;4984831;28;20104;-68
2022/03/04 06:38:50;;;;;;;42.58;26.35;;;2.00;96.60;;;;;;4972697;28;20038;-68
2022/03/04 06:41:16;;;;;;;46.47;28.60;;;1.90;96.90;;;;;;4974017;28;20023;-68
2022/03/04 06:43:43;;;;;;;43.20;26.38;;;1.90;97.60;;;;;;4972865;28;20027;-68
2022/03/04 06:46:10;;;;;;;43.00;26.42;;;1.90;96.80;;;;;;4973207;28;20043;-68
2022/03/04 06:48:36;;;;;;;46.13;26.80;;;2.00;96.10;;;;;;4973440;28;20037;-68
2022/03/04 06:51:03;;;;;;;42.53;24.85;;;1.90;96.70;;;;;;4973755;28;20050;-70
2022/03/04 06:53:29;;;;;;;46.63;25.73;;;2.00;95.70;;;;;;4974010;28;20444;-67
2022/03/04 06:55:58;;;;;;;43.67;24.40;;;1.90;95.80;;;;;;4955828;28;20025;-68
2022/03/04 06:58:25;;;;;;;37.53;22.52;;;2.10;95.90;;;;;;4972499;28;20031;-68
2022/03/04 07:00:51;;;;;;;42.22;24.45;;;2.40;94.60;;;;;;4973763;28;20355;-66
2022/03/04 07:03:18;;;;;;;37.40;24.45;;;2.40;94.60;;;;;;4972204;28;20031;-68
2022/03/04 07:05:45;;;;;;;42.38;24.80;;;2.40;94.40;;;;;;4973245;28;20043;-68
2022/03/04 07:08:12;;;;;;;35.45;22.42;;;2.20;93.20;;;;;;4973369;28;20062;-68
2022/03/04 07:10:44;;;;;;;38.63;23.27;;;2.20;94.00;;;;;;4973464;28;20252;-68
2022/03/04 07:13:12;;;;;;;37.85;22.90;;;2.50;94.10;;;;;;4973675;28;20038;-68
2022/03/04 07:15:39;;;;;;;38.92;23.25;;;2.60;94.60;;;;;;4971868;28;20035;-68
2022/03/04 07:18:05;;;;;;;43.53;24.83;;;2.80;93.90;;;;;;4973159;28;20109;-67
2022/03/04 07:20:31;;;;;;;41.90;23.38;;;3.00;93.00;;;;;;4972156;28;20023;-67
2022/03/04 07:22:58;;;;;;;36.95;22.60;;;3.20;92.60;;;;;;4973059;28;20426;-68
2022/03/04 07:25:24;;;;;;;44.10;24.33;;;3.30;92.30;;;;;;4973157;28;20089;-68
2022/03/04 07:27:52;;;;;;;38.03;23.67;;;3.30;92.10;;;;;;4973293;28;20090;-66
2022/03/04 07:30:18;;;;;;;35.53;20.92;;;3.60;91.50;;;;;;4955722;28;20039;-67
2022/03/04 07:32:46;;;;;;;37.65;21.85;;;3.60;90.50;;;;;;4972378;28;20031;-68
2022/03/04 07:35:13;;;;;;;36.85;22.88;;;3.70;90.20;;;;;;4973032;28;20031;-67
2022/03/04 07:37:42;;;;;;;31.90;20.55;;;3.90;90.90;;;;;;4955475;28;20034;-67
2022/03/04 07:40:11;;;;;;;34.97;20.40;;;4.00;88.60;;;;;;4972795;28;20492;-67
2022/03/04 07:42:38;;;;;;;35.25;21.00;;;4.20;86.60;;;;;;4973059;28;20031;-67
2022/03/04 07:45:06;;;;;;;35.15;21.45;;;4.20;86.00;;;;;;4972639;28;20432;-67
2022/03/04 07:47:33;;;;;;;32.33;21.55;;;4.30;87.50;;;;;;4967834;28;20046;-67
2022/03/04 07:49:58;;;;;;;36.70;23.52;;;4.10;87.80;;;;;;4973155;28;20082;-67
2022/03/04 07:52:31;;;;;;;37.92;22.55;;;4.10;87.60;;;;;;4966519;28;20038;-67
2022/03/04 07:55:02;;;;;;;39.17;22.73;;;4.00;87.30;;;;;;4964916;28;20039;-67
2022/03/04 07:57:28;;;;;;;41.25;23.70;;;4.20;88.10;;;;;;4957850;28;20031;-68
2022/03/04 07:59:54;;;;;;;45.22;23.60;;;4.10;86.40;;;;;;4971624;28;20081;-67
2022/03/04 08:02:23;;;;;;;36.88;21.60;;;4.10;87.00;;;;;;4968219;28;20038;-68
2022/03/04 08:04:50;;;;;;;38.17;22.48;;;4.30;88.00;;;;;;4967828;28;20027;-67
2022/03/04 08:07:17;;;;;;;37.60;21.38;;;4.40;86.40;;;;;;4952813;28;20421;-68
2022/03/04 08:09:44;;;;;;;35.03;23.13;;;4.50;86.50;;;;;;4952963;28;20035;-67
2022/03/04 08:12:10;;;;;;;33.80;20.98;;;4.60;86.90;;;;;;4960938;28;20077;-67
2022/03/04 08:14:38;;;;;;;40.13;21.90;;;4.50;85.10;;;;;;4962630;28;20047;-68
2022/03/04 08:17:04;;;;;;;38.50;22.35;;;4.60;85.30;;;;;;4970654;28;20030;-67
2022/03/04 08:19:31;;;;;;;33.75;21.92;;;4.80;85.60;;;;;;4978434;28;20026;-67
2022/03/04 08:21:58;;;;;;;36.00;21.20;;;5.00;85.60;;;;;;4974993;28;20037;-67
2022/03/04 08:24:24;;;;;;;35.40;22.05;;;5.20;85.90;;;;;;4978002;28;20027;-68
2022/03/04 08:26:50;;;;;;;37.95;22.63;;;5.20;84.80;;;;;;4973018;28;20063;-67
2022/03/04 08:29:16;;;;;;;37.45;23.35;;;5.10;84.40;;;;;;4966936;28;20059;-67
2022/03/04 08:31:45;;;;;;;38.70;23.10;;;5.30;83.50;;;;;;4976149;28;20128;-67
2022/03/04 08:34:11;;;;;;;39.78;24.02;;;5.30;84.40;;;;;;4974405;28;20034;-67
2022/03/04 08:36:37;;;;;;;36.00;22.45;;;5.40;84.80;;;;;;4975101;28;20031;-67
2022/03/04 08:39:05;;;;;;;34.60;21.45;;;5.30;82.80;;;;;;4976225;28;20027;-67
2022/03/04 08:41:35;;;;;;;36.83;21.88;;;5.40;81.50;;;;;;4976073;28;20517;-68
2022/03/04 08:44:02;;;;;;;33.17;19.58;;;5.50;81.80;;;;;;4974098;28;20043;-68
2022/03/04 08:46:28;;;;;;;36.33;21.20;;;5.70;81.00;;;;;;4973464;28;20050;-68
2022/03/04 08:48:54;;;;;;;34.95;20.25;;;5.80;81.10;;;;;;4974696;28;20050;-68
2022/03/04 08:51:24;;;;;;;34.40;20.77;;;6.00;79.10;;;;;;4975487;28;20049;-68
2022/03/04 08:53:52;;;;;;;40.78;21.92;;;6.00;78.80;;;;;;4975750;28;20054;-67
2022/03/04 08:56:19;;;;;;;33.53;19.98;;;6.10;79.10;;;;;;4975460;28;20059;-68
2022/03/04 08:58:45;;;;;;;31.00;20.00;;;6.10;77.50;;;;;;4975496;28;20027;-68
2022/03/04 09:01:11;;;;;;;34.70;22.10;;;5.90;77.90;;;;;;4975758;28;20054;-68
2022/03/04 09:03:41;;;;;;;33.90;21.27;;;5.80;77.60;;;;;;4975883;28;20039;-67
2022/03/04 09:06:07;;;;;;;38.58;22.73;;;5.90;77.80;;;;;;4974636;28;20054;-68
2022/03/04 09:08:33;;;;;;;34.10;19.13;;;6.10;78.00;;;;;;4974975;28;20030;-68
2022/03/04 09:11:00;;;;;;;34.00;18.63;;;6.20;76.60;;;;;;4975431;28;20428;-67
2022/03/04 09:13:27;;;;;;;33.83;20.25;;;6.10;75.70;;;;;;4974195;28;20465;-68
2022/03/04 09:15:53;;;;;;;35.85;19.95;;;6.30;75.90;;;;;;4990305;28;20035;-67
2022/03/04 09:18:19;;;;;;;31.17;20.77;;;6.20;73.80;;;;;;4974948;28;20033;-68
2022/03/04 09:20:45;;;;;;;29.23;18.00;;;6.50;75.20;;;;;;4975366;28;20031;-67
2022/03/04 09:23:11;;;;;;;34.15;18.80;;;6.50;73.80;;;;;;4965557;28;20086;-68
2022/03/04 09:25:38;;;;;;;34.47;20.85;;;6.50;75.40;;;;;;4974984;28;20038;-68
2022/03/04 09:28:05;;;;;;;35.58;20.20;;;6.80;76.00;;;;;;4973777;28;20057;-67
2022/03/04 09:30:33;;;;;;;40.53;22.83;;;7.00;76.20;;;;;;4972904;28;20030;-66
2022/03/04 09:33:00;;;;;;;34.35;19.40;;;6.80;76.00;;;;;;4973743;28;20126;-68
2022/03/04 09:35:26;;;;;;;33.35;20.27;;;6.80;73.20;;;;;;4957985;28;20031;-67
2022/03/04 09:37:51;;;;;;;30.98;18.85;;;6.80;74.60;;;;;;4974937;28;20038;-67
2022/03/04 09:40:18;;;;;;;30.92;19.20;;;6.80;73.20;;;;;;4973982;28;20027;-67
2022/03/04 09:42:45;;;;;;;32.35;18.88;;;7.00;73.60;;;;;;4973571;28;20023;-68
2022/03/04 09:45:11;;;;;;;29.38;18.25;;;6.90;73.40;;;;;;4973382;28;20050;-68
2022/03/04 09:47:37;;;;;;;32.53;18.38;;;6.60;71.40;;;;;;4974176;28;20547;-66
2022/03/04 09:50:06;;;;;;;33.28;19.92;;;6.70;72.60;;;;;;4973969;28;20058;-67
2022/03/04 09:52:32;;;;;;;33.47;18.85;;;6.70;71.90;;;;;;4972983;28;20045;-68
2022/03/04 09:55:00;;;;;;;31.35;19.23;;;6.80;73.30;;;;;;4971920;28;20043;-70
2022/03/04 09:57:26;;;;;;;32.13;19.38;;;6.80;73.10;;;;;;4969488;28;20034;-69
2022/03/04 09:59:52;;;;;;;33.10;20.85;;;7.00;72.30;;;;;;4963380;28;20479;-67
2022/03/04 10:02:20;;;;;;;33.25;20.30;;;7.10;72.90;;;;;;4967978;28;20085;-67
2022/03/04 10:04:55;;;;;;;27.38;17.20;;;7.30;73.40;;;;;;4989598;28;20330;-67
2022/03/04 10:07:22;;;;;;;31.95;20.08;;;7.20;70.30;;;;;;4974084;28;20042;-67
2022/03/04 10:09:49;;;;;;;34.38;20.50;;;7.30;73.60;;;;;;4969239;28;20026;-67
2022/03/04 10:12:17;;;;;;;36.70;18.55;;;7.30;71.60;;;;;;4970597;28;20109;-67
2022/03/04 10:15:04;;;;;;;30.23;18.92;;;7.40;71.00;;;;;;4973878;28;20473;-67
2022/03/04 10:17:32;;;;;;;32.70;19.98;;;7.40;71.60;;;;;;4956166;28;20050;-67
2022/03/04 10:20:00;;;;;;;33.40;19.15;;;7.60;71.70;;;;;;4984022;28;20088;-67
2022/03/04 10:22:37;;;;;;;32.72;19.77;;;7.50;71.20;;;;;;4973604;28;20023;-67
2022/03/04 10:25:19;;;;;;;31.63;18.67;;;7.60;71.50;;;;;;4987853;28;20058;-67
2022/03/04 10:27:47;;;;;;;32.72;19.58;;;7.70;72.60;;;;;;4972867;28;20038;-67
2022/03/04 10:30:15;;;;;;;36.90;19.88;;;7.30;68.10;;;;;;4972335;28;20057;-66
2022/03/04 10:32:41;;;;;;;31.75;19.17;;;7.30;70.90;;;;;;4972590;28;20034;-67
2022/03/04 10:35:09;;;;;;;35.28;21.42;;;7.40;69.90;;;;;;4968651;28;20015;-67
2022/03/04 10:37:54;;;;;;;40.97;24.25;;;7.80;71.50;;;;;;4987053;28;20026;-68
2022/03/04 10:40:35;;;;;;;42.85;24.30;;;7.90;70.20;;;;;;4980907;28;20031;-67
2022/03/04 10:43:05;;;;;;;34.13;22.45;;;8.10;71.60;;;;;;4973248;28;20366;-67
2022/03/04 10:45:40;;;;;;;38.17;23.33;;;8.20;71.90;;;;;;4972728;28;20130;-68
2022/03/04 10:48:09;;;;;;;43.33;25.45;;;8.40;72.90;;;;;;4974041;28;20110;-67
2022/03/04 10:50:42;;;;;;;49.00;28.40;;;8.30;71.00;;;;;;4972793;28;20433;-68
2022/03/04 10:53:10;;;;;;;39.10;22.85;;;8.30;68.90;;;;;;4972722;28;20058;-68
2022/03/04 10:55:45;;;;;;;36.20;23.15;;;8.50;71.10;;;;;;4973859;28;20488;-68
2022/03/04 10:58:28;;;;;;;35.25;18.23;;;8.60;70.70;;;;;;4973399;28;20023;-68
2022/03/04 11:00:58;;;;;;;30.83;19.50;;;8.20;67.30;;;;;;4972590;28;20039;-68
2022/03/04 11:03:29;;;;;;;32.88;20.17;;;8.10;67.80;;;;;;4972021;28;20031;-68
2022/03/04 11:05:58;;;;;;;31.27;19.42;;;8.20;69.50;;;;;;4973692;28;20054;-69
2022/03/04 11:08:24;;;;;;;35.22;19.48;;;8.20;68.30;;;;;;4973383;28;20102;-68
2022/03/04 11:10:52;;;;;;;36.92;19.70;;;8.20;69.20;;;;;;4972011;28;20050;-69
2022/03/04 11:13:18;;;;;;;31.23;19.50;;;8.40;70.40;;;;;;4973303;28;20019;-69
2022/03/04 11:15:46;;;;;;;27.58;17.92;;;8.50;69.20;;;;;;4973048;28;20031;-69
2022/03/04 11:18:15;;;;;;;31.90;19.83;;;8.70;70.40;;;;;;4971839;28;20033;-68
2022/03/04 11:20:44;;;;;;;34.25;20.85;;;8.80;69.80;;;;;;4973906;28;20378;-69
2022/03/04 11:23:16;;;;;;;32.47;18.48;;;8.90;70.10;;;;;;4972226;28;20041;-68
2022/03/04 11:25:45;;;;;;;29.67;17.85;;;8.60;68.00;;;;;;4973608;28;20069;-69
2022/03/04 11:28:17;;;;;;;33.42;19.15;;;8.40;66.40;;;;;;4973430;28;20114;-68
2022/03/04 11:30:46;;;;;;;29.40;17.80;;;8.50;67.30;;;;;;4973485;28;20050;-69
2022/03/04 11:33:22;;;;;;;35.88;19.23;;;8.30;66.80;;;;;;4972198;28;20039;-69
2022/03/04 11:35:55;;;;;;;35.67;20.25;;;8.40;71.20;;;;;;4972567;28;20053;-68
2022/03/04 11:38:44;;;;;;;33.08;18.90;;;8.70;71.30;;;;;;4973246;28;20449;-69
2022/03/04 11:41:17;;;;;;;28.42;17.80;;;8.80;69.50;;;;;;4958248;28;20042;-68
2022/03/04 11:43:47;;;;;;;30.63;18.50;;;8.70;68.70;;;;;;4973611;28;20034;-68
2022/03/04 11:46:21;;;;;;;33.05;17.67;;;8.70;66.70;;;;;;4972660;28;20070;-69
2022/03/04 11:49:08;;;;;;;30.60;17.13;;;8.70;69.20;;;;;;4971987;28;20048;-68
2022/03/04 11:51:34;;;;;;;27.55;15.88;;;8.80;67.30;;;;;;4972862;28;20405;-69
2022/03/04 11:54:23;;;;;;;29.30;16.42;;;8.70;65.80;;;;;;4973970;28;20022;-69
2022/03/04 11:56:53;;;;;;;30.45;17.08;;;8.80;66.40;;;;;;4977553;28;20633;-68
2022/03/04 11:59:22;;;;;;;29.98;16.23;;;8.80;65.10;;;;;;4976836;28;20420;-68
2022/03/04 12:01:48;;;;;;;27.10;15.48;;;8.80;65.10;;;;;;4976768;28;20022;-68
2022/03/04 12:04:16;;;;;;;27.13;16.33;;;8.90;64.30;;;;;;4975462;28;20035;-68
2022/03/04 12:07:03;;;;;;;27.58;15.77;;;9.10;64.00;;;;;;4977190;28;20503;-67
2022/03/04 12:09:31;;;;;;;24.17;14.05;;;9.20;62.30;;;;;;4975232;28;20481;-68
2022/03/04 12:12:11;;;;;;;27.77;14.70;;;9.10;61.20;;;;;;4976430;28;20105;-69
2022/03/04 12:15:16;;;;;;;28.67;16.50;;;9.10;62.20;;;;;;4976602;28;20038;-69
2022/03/04 12:18:17;;;;;;;28.08;16.42;;;8.90;63.10;;;;;;4975662;28;20457;-69
2022/03/04 12:20:43;;;;;;;26.67;15.57;;;9.00;64.50;;;;;;4976816;28;20035;-68
2022/03/04 12:23:14;;;;;;;24.13;13.60;;;8.90;62.40;;;;;;4976375;28;20154;-69
2022/03/04 12:25:55;;;;;;;27.27;17.02;;;9.10;64.10;;;;;;4976325;28;20041;-69
2022/03/04 12:28:26;;;;;;;26.00;16.27;;;9.00;62.80;;;;;;4975243;28;20066;-69
2022/03/04 12:31:01;;;;;;;29.63;16.48;;;9.00;65.80;;;;;;4976869;28;20234;-69
2022/03/04 12:33:34;;;;;;;23.55;13.82;;;9.10;63.10;;;;;;4976712;28;20441;-69
2022/03/04 12:36:03;;;;;;;22.90;12.77;;;8.90;59.30;;;;;;4975103;28;20023;-69
2022/03/04 12:38:44;;;;;;;23.80;12.80;;;9.00;60.80;;;;;;4975773;28;20054;-69
2022/03/04 12:41:16;;;;;;;21.25;12.10;;;9.00;59.60;;;;;;4974212;28;20031;-68